Time;durP1;ratioP1;P1;durP2;ratioP2;P2;SDS_P1;SDS_P2;PMS_P1;PMS_P2;Temp;Humidity;BMP_temperature;BMP_pressure;BME280_temperature;BME280_humidity;BME280_pressure;Samples;Min_cycle;Max_cycle;Signal;HPM_P1;HPM_P2
2021/09/18 00:02:20;;;;;;;3.80;1.40;;;14.90;99.90;;;;;;5040994;28;20510;-52
2021/09/18 00:04:47;;;;;;;1.30;0.70;;;14.90;99.90;;;;;;5040988;28;20936;-50
2021/09/18 00:07:14;;;;;;;1.43;0.90;;;14.90;99.90;;;;;;5040988;28;20444;-51
2021/09/18 00:09:40;;;;;;;1.13;0.97;;;14.90;99.90;;;;;;5040596;28;20966;-53
2021/09/18 00:12:07;;;;;;;1.33;1.10;;;14.80;99.90;;;;;;5040768;28;20515;-50
2021/09/18 00:14:37;;;;;;;1.20;0.80;;;14.90;99.90;;;;;;5040611;28;20452;-52
2021/09/18 00:17:04;;;;;;;1.27;0.87;;;14.80;99.90;;;;;;5040259;28;20444;-50
2021/09/18 00:19:31;;;;;;;1.00;0.70;;;14.80;99.90;;;;;;5038981;28;20459;-48
2021/09/18 00:21:57;;;;;;;1.10;0.70;;;14.80;99.90;;;;;;5040376;28;20479;-51
2021/09/18 00:24:24;;;;;;;1.10;0.80;;;14.80;99.90;;;;;;5040462;28;20835;-50
2021/09/18 00:26:51;;;;;;;1.97;1.77;;;14.80;99.90;;;;;;5039887;28;20464;-48
2021/09/18 00:29:18;;;;;;;1.50;1.17;;;14.80;99.90;;;;;;5039623;28;20444;-53
2021/09/18 00:31:46;;;;;;;1.40;1.13;;;14.80;99.90;;;;;;5039647;28;20913;-52
2021/09/18 00:34:12;;;;;;;1.20;0.90;;;14.90;99.90;;;;;;5040115;28;20759;-47
2021/09/18 00:36:39;;;;;;;1.63;0.80;;;14.90;99.90;;;;;;5040222;28;20859;-53
2021/09/18 00:39:06;;;;;;;3.37;1.03;;;14.90;99.90;;;;;;5040207;28;20959;-48
2021/09/18 00:41:32;;;;;;;1.43;1.07;;;14.90;99.90;;;;;;5039718;28;20448;-52
2021/09/18 00:43:59;;;;;;;1.13;0.70;;;14.90;99.90;;;;;;5039951;28;20444;-49
2021/09/18 00:46:26;;;;;;;1.93;1.27;;;14.90;99.90;;;;;;5040385;28;20502;-48
2021/09/18 00:48:54;;;;;;;1.57;0.80;;;14.90;99.90;;;;;;5040857;28;20444;-47
2021/09/18 00:51:23;;;;;;;1.00;0.80;;;14.80;99.90;;;;;;5040739;28;20486;-48
2021/09/18 00:53:49;;;;;;;1.23;1.03;;;14.80;99.90;;;;;;5039698;28;20488;-46
2021/09/18 00:56:17;;;;;;;1.00;0.90;;;14.80;99.90;;;;;;5040382;28;20484;-44
2021/09/18 00:58:44;;;;;;;1.00;0.73;;;14.80;99.90;;;;;;5039218;28;20929;-45
2021/09/18 01:01:11;;;;;;;1.20;0.90;;;14.90;99.90;;;;;;5040913;28;20439;-46
2021/09/18 01:03:38;;;;;;;1.00;0.70;;;14.80;99.90;;;;;;5040019;28;20490;-47
2021/09/18 01:06:06;;;;;;;1.37;0.80;;;14.80;99.90;;;;;;5039414;28;20456;-46
2021/09/18 01:08:33;;;;;;;1.50;1.00;;;14.80;99.90;;;;;;5039240;28;20444;-49
2021/09/18 01:11:00;;;;;;;0.97;0.80;;;14.80;99.90;;;;;;5038903;28;20922;-48
2021/09/18 01:13:26;;;;;;;1.30;0.90;;;14.80;99.90;;;;;;5039383;28;20529;-51
2021/09/18 01:15:55;;;;;;;1.50;1.00;;;14.70;99.90;;;;;;5039778;28;20513;-49
2021/09/18 01:18:22;;;;;;;1.50;0.97;;;14.70;99.90;;;;;;5039569;28;20448;-52
2021/09/18 01:20:49;;;;;;;1.50;1.23;;;14.70;99.90;;;;;;5039268;28;20491;-49
2021/09/18 01:23:19;;;;;;;1.77;0.87;;;14.70;99.90;;;;;;5039101;28;20452;-48
2021/09/18 01:25:46;;;;;;;1.30;0.90;;;14.80;99.90;;;;;;5039833;28;20756;-44
2021/09/18 01:28:12;;;;;;;1.07;0.90;;;14.80;99.90;;;;;;5039482;28;20448;-49
2021/09/18 01:30:39;;;;;;;1.00;0.70;;;14.80;99.90;;;;;;5039379;28;20448;-47
2021/09/18 01:33:09;;;;;;;3.13;1.00;;;14.80;99.90;;;;;;5039312;28;20537;-50
2021/09/18 01:35:36;;;;;;;1.73;1.10;;;14.80;99.90;;;;;;5039289;28;20468;-44
2021/09/18 01:38:05;;;;;;;1.67;1.33;;;14.70;99.90;;;;;;5038805;28;20483;-48
2021/09/18 01:40:36;;;;;;;1.43;0.90;;;14.70;99.90;;;;;;5039121;28;20448;-50
2021/09/18 01:43:04;;;;;;;1.10;0.87;;;14.70;99.90;;;;;;5039440;28;20510;-46
2021/09/18 01:45:31;;;;;;;1.40;1.07;;;14.70;99.90;;;;;;5039329;28;20547;-44
2021/09/18 01:48:00;;;;;;;1.23;0.80;;;14.70;99.90;;;;;;5038830;28;20452;-46
2021/09/18 01:50:29;;;;;;;1.10;0.93;;;14.70;99.90;;;;;;5039399;28;20456;-50
2021/09/18 01:52:57;;;;;;;1.40;1.00;;;14.70;99.90;;;;;;5039662;28;20488;-48
2021/09/18 01:55:24;;;;;;;1.30;1.00;;;14.70;99.90;;;;;;5039383;28;20779;-45
2021/09/18 01:57:54;;;;;;;1.40;0.90;;;14.60;99.90;;;;;;5039170;28;20507;-49
2021/09/18 02:00:21;;;;;;;1.30;1.10;;;14.60;99.90;;;;;;5038872;28;20456;-46
2021/09/18 02:02:48;;;;;;;1.70;1.10;;;14.60;99.90;;;;;;5040132;28;20506;-51
2021/09/18 02:05:17;;;;;;;1.20;0.70;;;14.60;99.90;;;;;;5038635;28;20439;-46
2021/09/18 02:07:44;;;;;;;0.93;0.77;;;14.70;99.90;;;;;;5039123;28;20444;-52
2021/09/18 02:10:14;;;;;;;1.60;0.90;;;14.60;99.90;;;;;;5038823;28;20452;-47
2021/09/18 02:12:41;;;;;;;1.00;0.70;;;14.60;99.90;;;;;;5038501;28;20541;-51
2021/09/18 02:15:11;;;;;;;1.10;0.80;;;14.60;99.90;;;;;;5039445;28;20495;-49
2021/09/18 02:17:38;;;;;;;1.30;1.10;;;14.60;99.90;;;;;;5038957;28;20511;-52
2021/09/18 02:20:06;;;;;;;1.20;0.80;;;14.60;99.90;;;;;;5038811;28;20506;-49
2021/09/18 02:22:33;;;;;;;1.20;1.00;;;14.60;99.90;;;;;;5038520;28;20444;-48
2021/09/18 02:25:00;;;;;;;1.00;0.83;;;14.60;99.90;;;;;;5038307;28;20478;-47
2021/09/18 02:27:26;;;;;;;1.10;0.77;;;14.60;99.90;;;;;;5039096;28;20447;-45
2021/09/18 02:29:53;;;;;;;1.23;1.00;;;14.50;99.90;;;;;;5039466;28;20474;-50
2021/09/18 02:32:24;;;;;;;2.20;0.90;;;14.60;99.90;;;;;;5038664;28;20436;-48
2021/09/18 02:34:51;;;;;;;1.23;1.10;;;14.50;99.90;;;;;;5038761;28;20459;-50
2021/09/18 02:37:18;;;;;;;1.33;0.90;;;14.50;99.90;;;;;;5038414;28;20440;-48
2021/09/18 02:39:45;;;;;;;1.10;0.80;;;14.50;99.90;;;;;;5039110;28;20452;-47
2021/09/18 02:42:11;;;;;;;1.20;1.00;;;14.50;99.90;;;;;;5038138;28;20455;-48
2021/09/18 02:44:38;;;;;;;1.13;0.93;;;14.50;99.90;;;;;;5038884;28;20448;-53
2021/09/18 02:47:05;;;;;;;1.20;0.90;;;14.50;99.90;;;;;;5038449;28;20482;-50
2021/09/18 02:49:33;;;;;;;1.20;0.97;;;14.50;99.90;;;;;;5038522;28;20482;-50
2021/09/18 02:52:00;;;;;;;1.20;0.83;;;14.50;99.90;;;;;;5039016;28;20902;-46
2021/09/18 02:54:26;;;;;;;1.53;0.90;;;14.50;99.90;;;;;;5038652;28;20479;-51
2021/09/18 02:56:53;;;;;;;1.20;0.77;;;14.50;99.90;;;;;;5038529;28;20472;-51
2021/09/18 02:59:20;;;;;;;1.03;0.90;;;14.50;99.90;;;;;;5039119;28;20713;-49
2021/09/18 03:01:47;;;;;;;1.10;0.90;;;14.50;99.90;;;;;;5038318;28;20439;-50
2021/09/18 03:04:13;;;;;;;1.40;1.03;;;14.50;99.90;;;;;;5038736;28;20448;-48
2021/09/18 03:06:41;;;;;;;1.13;0.90;;;14.50;99.90;;;;;;5038704;28;20483;-47
2021/09/18 03:09:08;;;;;;;1.87;1.10;;;14.50;99.90;;;;;;5038211;28;20834;-50
2021/09/18 03:11:34;;;;;;;1.20;1.10;;;14.50;99.90;;;;;;5038284;28;20448;-47
2021/09/18 03:14:01;;;;;;;1.87;1.20;;;14.50;99.90;;;;;;5038087;28;20487;-50
2021/09/18 03:16:27;;;;;;;1.13;0.93;;;14.50;99.90;;;;;;5037968;28;20475;-47
2021/09/18 03:18:55;;;;;;;1.73;1.23;;;14.50;99.90;;;;;;5037079;28;20464;-49
2021/09/18 03:21:22;;;;;;;1.50;1.00;;;14.50;99.90;;;;;;5037735;28;20901;-51
2021/09/18 03:23:50;;;;;;;1.10;1.00;;;14.50;99.90;;;;;;5038038;28;20448;-48
2021/09/18 03:26:17;;;;;;;1.80;1.20;;;14.50;99.90;;;;;;5038213;28;20459;-48
2021/09/18 03:28:43;;;;;;;1.10;0.90;;;14.50;99.90;;;;;;5038162;28;20448;-47
2021/09/18 03:31:10;;;;;;;1.33;1.00;;;14.50;99.90;;;;;;5036184;28;20482;-51
2021/09/18 03:33:40;;;;;;;2.10;1.90;;;14.50;99.90;;;;;;5037671;28;20480;-49
2021/09/18 03:36:06;;;;;;;1.00;0.80;;;14.50;99.90;;;;;;5037956;28;20450;-53
2021/09/18 03:38:33;;;;;;;2.00;0.97;;;14.50;99.90;;;;;;5037262;28;21007;-48
2021/09/18 03:41:01;;;;;;;1.40;1.03;;;14.50;99.90;;;;;;5037389;28;20451;-47
2021/09/18 03:43:28;;;;;;;1.60;1.50;;;14.50;99.90;;;;;;5036994;28;20444;-47
2021/09/18 03:45:55;;;;;;;1.40;1.10;;;14.60;99.90;;;;;;5036897;28;20451;-49
2021/09/18 03:48:21;;;;;;;1.97;1.20;;;14.60;99.90;;;;;;5037009;28;20852;-47
2021/09/18 03:50:48;;;;;;;1.23;0.90;;;14.70;99.90;;;;;;5036933;28;20448;-51
2021/09/18 03:53:15;;;;;;;1.10;1.00;;;14.60;99.90;;;;;;5038607;28;20514;-51
2021/09/18 03:55:42;;;;;;;1.00;0.80;;;14.60;99.90;;;;;;5041187;28;20452;-48
2021/09/18 03:58:23;;;;;;;1.40;1.13;;;14.50;99.90;;;;;;5041591;28;20463;-45
2021/09/18 04:00:49;;;;;;;1.10;0.83;;;14.50;99.90;;;;;;5041684;28;20448;-47
2021/09/18 04:03:16;;;;;;;1.10;0.83;;;14.50;99.90;;;;;;5041000;28;20937;-46
2021/09/18 04:05:43;;;;;;;1.37;1.00;;;14.50;99.90;;;;;;5041165;28;20530;-50
2021/09/18 04:08:10;;;;;;;2.17;1.20;;;14.50;99.90;;;;;;5041016;28;20506;-50
2021/09/18 04:10:38;;;;;;;1.30;1.07;;;14.60;99.90;;;;;;5041809;28;20440;-46
2021/09/18 04:13:05;;;;;;;1.30;1.07;;;14.60;99.90;;;;;;5041231;28;20476;-49
2021/09/18 04:15:33;;;;;;;1.60;1.20;;;14.60;99.90;;;;;;5041277;28;20470;-50
2021/09/18 04:18:00;;;;;;;2.10;1.40;;;14.60;99.90;;;;;;5040504;28;20913;-47
2021/09/18 04:20:27;;;;;;;1.43;1.30;;;14.60;99.90;;;;;;5040987;28;20456;-53
2021/09/18 04:22:53;;;;;;;1.73;1.23;;;14.60;99.90;;;;;;5041441;28;20502;-47
2021/09/18 04:25:20;;;;;;;1.13;1.03;;;14.70;99.90;;;;;;5041419;28;20436;-50
2021/09/18 04:27:47;;;;;;;1.50;1.10;;;14.70;99.90;;;;;;5040779;28;20491;-53
2021/09/18 04:30:14;;;;;;;1.50;1.13;;;14.70;99.90;;;;;;5040931;28;20436;-51
2021/09/18 04:32:42;;;;;;;1.87;1.47;;;14.60;99.90;;;;;;5040100;28;20444;-52
2021/09/18 04:35:09;;;;;;;1.43;1.30;;;14.50;99.90;;;;;;5040354;28;20484;-48
2021/09/18 04:37:36;;;;;;;2.30;1.50;;;14.50;99.90;;;;;;5039807;28;20444;-48
2021/09/18 04:40:03;;;;;;;1.30;1.10;;;14.60;99.90;;;;;;5040600;28;20451;-48
2021/09/18 04:42:29;;;;;;;2.03;1.60;;;14.70;99.90;;;;;;5040093;28;20892;-48
2021/09/18 04:44:56;;;;;;;1.40;0.93;;;14.60;99.90;;;;;;5040439;28;20460;-49
2021/09/18 04:47:23;;;;;;;1.30;1.03;;;14.70;99.90;;;;;;5040020;28;20913;-46
2021/09/18 04:49:51;;;;;;;2.03;1.10;;;14.60;99.90;;;;;;5040282;28;20455;-51
2021/09/18 04:52:17;;;;;;;2.40;1.50;;;14.70;99.90;;;;;;5040572;28;20440;-46
2021/09/18 04:54:46;;;;;;;1.53;1.20;;;14.70;99.90;;;;;;5039825;28;20831;-50
2021/09/18 04:57:12;;;;;;;1.57;1.20;;;14.70;99.90;;;;;;5039570;28;20529;-51
2021/09/18 04:59:39;;;;;;;1.50;1.17;;;14.70;99.90;;;;;;5039804;28;20448;-53
2021/09/18 05:02:06;;;;;;;1.23;0.97;;;14.60;99.90;;;;;;5035341;28;20530;-47
2021/09/18 05:04:32;;;;;;;1.43;1.30;;;14.60;99.90;;;;;;5030091;28;20437;-45
2021/09/18 05:07:00;;;;;;;7.80;1.30;;;14.60;99.90;;;;;;5032552;28;20452;-51
2021/09/18 05:09:27;;;;;;;4.07;2.13;;;14.60;99.90;;;;;;5028806;28;20440;-50
2021/09/18 05:11:53;;;;;;;1.83;1.50;;;14.60;99.90;;;;;;5026287;28;20558;-50
2021/09/18 05:14:20;;;;;;;2.80;2.03;;;14.50;99.90;;;;;;5026481;28;20472;-45
2021/09/18 05:16:47;;;;;;;2.47;1.27;;;14.50;99.90;;;;;;5031981;28;20444;-45
2021/09/18 05:19:14;;;;;;;1.90;1.67;;;14.50;99.90;;;;;;5030954;28;20464;-47
2021/09/18 05:21:40;;;;;;;3.03;1.60;;;14.50;99.90;;;;;;5028044;28;20470;-48
2021/09/18 05:24:14;;;;;;;3.20;1.40;;;14.40;99.90;;;;;;5024630;28;20445;-44
2021/09/18 05:26:41;;;;;;;1.70;1.60;;;14.30;99.90;;;;;;5024421;28;20445;-51
2021/09/18 05:29:08;;;;;;;3.10;2.13;;;14.30;99.90;;;;;;5027351;28;20752;-49
2021/09/18 05:31:34;;;;;;;2.20;1.70;;;14.30;99.90;;;;;;5030621;28;20904;-51
2021/09/18 05:34:01;;;;;;;2.87;1.93;;;14.40;99.90;;;;;;5028024;28;20530;-50
2021/09/18 05:36:28;;;;;;;2.60;1.63;;;14.30;99.90;;;;;;5029527;28;20487;-45
2021/09/18 05:38:54;;;;;;;3.73;1.93;;;14.30;99.90;;;;;;5036468;28;20444;-53
2021/09/18 05:41:22;;;;;;;3.10;1.50;;;14.40;99.90;;;;;;5028108;28;20449;-51
2021/09/18 05:43:49;;;;;;;1.90;1.57;;;14.30;99.90;;;;;;5034990;28;20442;-48
2021/09/18 05:46:15;;;;;;;2.87;2.57;;;14.40;99.90;;;;;;5027781;28;20468;-50
2021/09/18 05:48:42;;;;;;;2.73;2.00;;;14.40;99.90;;;;;;5036146;28;20437;-53
2021/09/18 05:51:09;;;;;;;2.33;1.23;;;14.40;99.90;;;;;;5037208;28;20440;-48
2021/09/18 05:53:36;;;;;;;2.87;1.70;;;14.40;99.90;;;;;;5034553;28;20515;-50
2021/09/18 05:56:03;;;;;;;2.23;1.47;;;14.50;99.90;;;;;;5028136;28;20543;-51
2021/09/18 05:58:31;;;;;;;3.33;2.00;;;14.50;99.90;;;;;;5036799;28;20504;-51
2021/09/18 06:00:58;;;;;;;2.60;1.80;;;14.40;99.90;;;;;;5032097;28;20524;-52
2021/09/18 06:03:25;;;;;;;1.83;1.40;;;14.40;99.90;;;;;;5032031;28;20821;-50
2021/09/18 06:05:51;;;;;;;2.40;2.20;;;14.40;99.90;;;;;;5038329;28;20444;-45
2021/09/18 06:08:18;;;;;;;2.27;2.07;;;14.40;99.90;;;;;;5038379;28;20444;-47
2021/09/18 06:10:45;;;;;;;2.03;1.40;;;14.40;99.90;;;;;;5022275;28;20452;-44
2021/09/18 06:13:11;;;;;;;1.77;1.67;;;14.40;99.90;;;;;;5018583;28;20487;-49
2021/09/18 06:15:39;;;;;;;2.60;2.27;;;14.30;99.90;;;;;;5016661;28;20489;-44
2021/09/18 06:18:06;;;;;;;2.30;1.63;;;14.30;99.90;;;;;;5016799;28;20512;-44
2021/09/18 06:20:33;;;;;;;3.40;1.80;;;14.30;99.90;;;;;;5028750;28;20821;-44
2021/09/18 06:22:59;;;;;;;2.00;1.70;;;14.40;99.90;;;;;;5029162;28;21049;-44
2021/09/18 06:25:26;;;;;;;1.43;1.20;;;14.50;99.90;;;;;;5027722;28;20444;-44
2021/09/18 06:27:53;;;;;;;3.40;3.10;;;14.50;99.90;;;;;;5025314;28;20894;-44
2021/09/18 06:30:19;;;;;;;1.90;1.70;;;14.50;99.90;;;;;;5033454;28;20762;-44
2021/09/18 06:32:47;;;;;;;2.33;1.60;;;14.50;99.90;;;;;;5033037;28;20847;-52
2021/09/18 06:35:14;;;;;;;2.40;1.87;;;14.50;99.90;;;;;;5026521;28;20536;-50
2021/09/18 06:37:43;;;;;;;1.40;1.20;;;14.50;99.90;;;;;;5026549;28;20440;-44
2021/09/18 06:40:11;;;;;;;3.50;2.17;;;14.60;99.90;;;;;;5023627;28;20441;-42
2021/09/18 06:42:38;;;;;;;2.33;1.47;;;14.60;99.90;;;;;;5028383;28;20507;-43
2021/09/18 06:45:06;;;;;;;2.27;1.57;;;14.60;99.90;;;;;;5034622;28;20463;-45
2021/09/18 06:47:33;;;;;;;1.60;1.20;;;14.60;99.90;;;;;;5029623;28;20433;-43
2021/09/18 06:50:02;;;;;;;2.20;1.43;;;14.60;99.90;;;;;;5032198;28;20748;-48
2021/09/18 06:52:29;;;;;;;2.00;1.10;;;14.70;99.90;;;;;;5025050;28;20449;-46
2021/09/18 06:54:55;;;;;;;2.70;1.23;;;14.70;99.90;;;;;;5027478;28;20484;-46
2021/09/18 06:57:22;;;;;;;2.73;1.83;;;14.80;99.90;;;;;;5033268;28;20476;-45
2021/09/18 06:59:49;;;;;;;2.80;2.47;;;14.80;99.90;;;;;;5020133;28;20934;-43
2021/09/18 07:02:16;;;;;;;2.37;1.43;;;14.80;99.90;;;;;;5023082;28;20440;-48
2021/09/18 07:04:42;;;;;;;2.37;1.33;;;14.80;99.90;;;;;;5028364;28;20441;-46
2021/09/18 07:07:10;;;;;;;2.43;1.70;;;14.80;99.90;;;;;;5030689;28;20570;-44
2021/09/18 07:09:37;;;;;;;2.40;1.37;;;14.90;99.90;;;;;;5025856;28;20492;-48
2021/09/18 07:12:04;;;;;;;1.70;1.10;;;14.90;99.90;;;;;;5032965;28;20494;-48
2021/09/18 07:14:31;;;;;;;1.73;1.60;;;14.90;99.90;;;;;;5030727;28;20471;-46
2021/09/18 07:16:58;;;;;;;2.30;1.63;;;15.00;99.90;;;;;;5026296;28;20461;-45
2021/09/18 07:19:24;;;;;;;1.40;1.30;;;15.00;99.90;;;;;;5032348;28;20440;-47
2021/09/18 07:21:51;;;;;;;2.00;1.50;;;15.10;99.90;;;;;;5021083;28;20907;-42
2021/09/18 07:24:19;;;;;;;2.70;1.70;;;15.10;99.90;;;;;;5032376;28;20428;-48
2021/09/18 07:26:46;;;;;;;2.20;1.70;;;15.10;99.90;;;;;;5029196;28;20508;-50
2021/09/18 07:29:14;;;;;;;1.47;1.17;;;15.20;99.90;;;;;;5753576;22;20484;-45
2021/09/18 07:31:41;;;;;;;2.30;1.57;;;15.20;99.90;;;;;;5040989;28;20444;-42
2021/09/18 07:34:08;;;;;;;2.83;1.60;;;15.20;99.90;;;;;;5040223;28;20491;-48
2021/09/18 07:36:34;;;;;;;1.57;1.40;;;15.30;99.90;;;;;;5039233;28;20517;-43
2021/09/18 07:39:01;;;;;;;1.30;1.20;;;15.30;99.90;;;;;;5037810;28;20452;-45
2021/09/18 07:41:29;;;;;;;4.13;2.10;;;15.30;99.90;;;;;;5040318;28;20483;-46
2021/09/18 07:44:00;;;;;;;2.30;1.90;;;15.40;99.90;;;;;;5040619;28;20517;-46
2021/09/18 07:46:27;;;;;;;2.03;1.47;;;15.50;99.90;;;;;;5040242;28;20444;-50
2021/09/18 07:48:54;;;;;;;2.80;1.63;;;15.50;99.90;;;;;;5037801;28;20475;-46
2021/09/18 07:51:21;;;;;;;2.10;1.60;;;15.60;99.90;;;;;;5040062;28;20444;-48
2021/09/18 07:53:47;;;;;;;1.90;1.50;;;15.60;99.90;;;;;;5038368;28;20933;-48
2021/09/18 07:56:14;;;;;;;2.83;1.87;;;15.70;99.90;;;;;;5038245;28;20526;-45
2021/09/18 07:58:42;;;;;;;2.20;1.83;;;15.80;99.90;;;;;;5037941;28;20547;-47
2021/09/18 08:01:09;;;;;;;1.87;1.50;;;16.00;99.90;;;;;;5037944;28;20522;-46
2021/09/18 08:03:36;;;;;;;5.37;2.60;;;16.10;99.90;;;;;;5027884;28;20448;-45
2021/09/18 08:06:03;;;;;;;2.27;1.77;;;16.40;99.90;;;;;;5018062;28;20445;-46
2021/09/18 08:08:29;;;;;;;3.07;1.97;;;16.60;99.90;;;;;;5018450;28;20777;-45
2021/09/18 08:10:56;;;;;;;2.40;1.93;;;16.80;99.90;;;;;;5018001;28;20793;-47
2021/09/18 08:13:23;;;;;;;2.13;1.50;;;16.90;99.90;;;;;;5017836;28;20445;-51
2021/09/18 08:15:51;;;;;;;2.60;2.20;;;17.00;99.90;;;;;;5017242;28;20473;-47
2021/09/18 08:18:18;;;;;;;1.87;1.50;;;17.20;99.90;;;;;;5017529;28;20457;-43
2021/09/18 08:20:44;;;;;;;1.60;1.30;;;17.30;99.90;;;;;;5035989;28;20905;-42
2021/09/18 08:23:11;;;;;;;2.77;1.67;;;17.40;99.90;;;;;;5035296;28;20444;-49
2021/09/18 08:25:38;;;;;;;1.50;1.30;;;17.50;99.90;;;;;;5037003;28;20452;-48
2021/09/18 08:28:05;;;;;;;1.67;1.40;;;17.60;99.90;;;;;;5021322;28;20450;-46
2021/09/18 08:30:34;;;;;;;1.80;1.57;;;18.00;99.90;;;;;;5031508;28;20933;-46
2021/09/18 08:33:02;;;;;;;1.90;1.50;;;18.30;99.90;;;;;;5035383;28;20535;-43
2021/09/18 08:35:29;;;;;;;1.80;1.40;;;18.70;99.90;;;;;;5027031;28;20608;-48
2021/09/18 08:37:56;;;;;;;1.23;1.07;;;19.00;99.90;;;;;;5018205;28;20450;-47
2021/09/18 08:40:25;;;;;;;2.80;1.90;;;19.40;99.90;;;;;;5014784;28;20440;-43
2021/09/18 08:42:54;;;;;;;1.83;1.13;;;19.60;99.90;;;;;;5017927;28;20467;-43
2021/09/18 08:45:21;;;;;;;1.80;1.23;;;19.70;99.90;;;;;;5017395;28;20452;-47
2021/09/18 08:47:50;;;;;;;1.50;1.13;;;19.70;99.90;;;;;;5016672;28;20476;-45
2021/09/18 08:50:21;;;;;;;1.50;1.30;;;19.60;99.90;;;;;;5020544;28;20449;-43
2021/09/18 08:52:48;;;;;;;1.40;1.17;;;19.50;99.90;;;;;;5019489;28;20922;-46
2021/09/18 08:55:15;;;;;;;2.10;1.20;;;19.40;99.90;;;;;;5021904;28;20477;-48
2021/09/18 08:57:43;;;;;;;1.13;0.93;;;19.30;99.90;;;;;;5020082;28;20511;-50
2021/09/18 09:00:47;;;;;;;1.67;1.03;;;19.40;99.90;;;;;;5016603;28;20468;-49
2021/09/18 09:03:14;;;;;;;2.13;1.30;;;19.60;99.90;;;;;;5024747;28;20443;-46
2021/09/18 09:05:44;;;;;;;1.00;0.87;;;19.70;99.90;;;;;;5031900;28;20951;-42
2021/09/18 09:08:13;;;;;;;1.03;0.90;;;19.70;99.90;;;;;;5039922;28;20513;-42
2021/09/18 09:10:43;;;;;;;2.90;1.37;;;20.10;99.90;;;;;;5008114;28;20440;-46
2021/09/18 09:13:11;;;;;;;1.30;1.00;;;20.60;99.90;;;;;;5038938;28;20518;-45
2021/09/18 09:15:38;;;;;;;2.60;1.00;;;20.80;99.90;;;;;;5038673;28;20484;-48
2021/09/18 09:18:16;;;;;;;1.20;1.00;;;21.00;99.90;;;;;;5038853;28;20456;-44
2021/09/18 09:20:44;;;;;;;1.60;1.20;;;21.10;99.90;;;;;;5039360;28;20843;-51
2021/09/18 09:23:19;;;;;;;3.23;2.70;;;21.10;99.90;;;;;;5039517;28;20445;-45
2021/09/18 09:25:50;;;;;;;1.20;1.00;;;21.00;99.90;;;;;;5038768;28;20916;-44
2021/09/18 09:28:26;;;;;;;2.10;1.40;;;20.80;99.90;;;;;;5038995;28;20436;-48
2021/09/18 09:30:55;;;;;;;1.20;1.00;;;20.60;99.90;;;;;;5033156;28;20570;-45
2021/09/18 09:33:22;;;;;;;2.40;1.57;;;20.40;99.90;;;;;;5018001;28;20821;-42
2021/09/18 09:35:50;;;;;;;1.33;1.20;;;20.10;99.90;;;;;;5019021;28;20476;-45
2021/09/18 09:38:16;;;;;;;1.07;0.83;;;19.80;99.90;;;;;;5017750;28;20524;-43
2021/09/18 09:40:45;;;;;;;1.10;0.80;;;19.60;99.90;;;;;;5017088;28;20453;-46
2021/09/18 09:43:15;;;;;;;1.30;0.90;;;19.40;99.90;;;;;;5016920;28;20789;-45
2021/09/18 09:45:41;;;;;;;1.20;0.90;;;19.20;99.90;;;;;;5017373;28;20777;-46
2021/09/18 09:48:11;;;;;;;1.00;0.70;;;19.00;99.90;;;;;;5017399;28;20472;-45
2021/09/18 09:50:40;;;;;;;1.70;0.80;;;18.90;99.90;;;;;;5016799;28;20843;-44
2021/09/18 09:53:23;;;;;;;1.63;1.13;;;18.80;99.90;;;;;;5017453;28;20511;-42
2021/09/18 09:55:50;;;;;;;1.00;0.80;;;18.60;99.90;;;;;;5016037;28;20575;-46
2021/09/18 09:58:17;;;;;;;0.97;0.63;;;18.50;99.90;;;;;;5015524;28;20449;-44
2021/09/18 10:00:46;;;;;;;1.73;0.80;;;18.50;99.90;;;;;;5015630;28;20453;-44
2021/09/18 10:03:13;;;;;;;0.90;0.60;;;18.50;99.90;;;;;;5015395;28;20878;-45
2021/09/18 10:05:40;;;;;;;3.00;1.03;;;18.50;99.90;;;;;;5016708;28;20523;-49
2021/09/18 10:08:11;;;;;;;1.40;1.10;;;18.40;99.90;;;;;;5016857;28;20441;-46
2021/09/18 10:10:38;;;;;;;1.20;1.00;;;18.60;99.90;;;;;;5015300;28;20437;-47
2021/09/18 10:13:05;;;;;;;1.47;0.90;;;18.90;99.90;;;;;;5014920;28;20465;-44
2021/09/18 10:15:32;;;;;;;1.60;1.23;;;19.60;99.90;;;;;;5014724;28;20953;-49
2021/09/18 10:18:01;;;;;;;2.33;1.20;;;21.00;99.90;;;;;;5015193;28;20445;-45
2021/09/18 10:23:17;;;;;;;1.23;0.93;;;22.80;99.90;;;;;;5014752;28;20891;-45
2021/09/18 10:25:47;;;;;;;1.10;0.70;;;22.70;99.90;;;;;;5015001;28;20525;-45
2021/09/18 10:28:15;;;;;;;1.07;0.90;;;22.40;99.90;;;;;;5014613;28;20927;-48
2021/09/18 10:30:45;;;;;;;3.00;1.00;;;22.00;99.90;;;;;;5015328;28;20485;-46
2021/09/18 10:33:33;;;;;;;1.50;1.00;;;21.60;99.90;;;;;;5014698;28;20769;-44
2021/09/18 10:36:02;;;;;;;1.30;0.83;;;21.70;99.90;;;;;;5014961;28;20504;-45
2021/09/18 10:38:32;;;;;;;1.47;0.90;;;22.20;99.90;;;;;;5015450;28;20488;-44
2021/09/18 10:41:04;;;;;;;1.73;0.90;;;22.70;99.90;;;;;;5015670;28;20457;-43
2021/09/18 10:43:33;;;;;;;1.00;0.80;;;22.90;99.90;;;;;;5015713;28;20479;-43
2021/09/18 10:46:00;;;;;;;1.00;0.80;;;22.80;99.90;;;;;;5015495;28;20465;-48
2021/09/18 10:48:35;;;;;;;1.60;1.30;;;22.70;99.90;;;;;;5015366;28;20441;-49
2021/09/18 10:51:03;;;;;;;1.77;0.90;;;22.40;99.90;;;;;;5015630;28;20440;-44
2021/09/18 10:53:31;;;;;;;1.30;0.90;;;22.30;99.90;;;;;;5015483;28;20483;-43
2021/09/18 10:56:02;;;;;;;1.30;1.20;;;22.50;99.90;;;;;;5015966;28;20543;-44
2021/09/18 10:58:28;;;;;;;1.10;0.80;;;22.70;99.90;;;;;;5015700;28;20448;-45
2021/09/18 11:00:57;;;;;;;1.63;0.90;;;22.90;99.90;;;;;;5015578;28;20507;-46
2021/09/18 11:03:42;;;;;;;2.20;0.93;;;22.90;99.90;;;;;;5016830;28;20456;-45
2021/09/18 11:06:09;;;;;;;1.00;0.80;;;22.80;99.90;;;;;;5019533;28;20448;-45
2021/09/18 11:08:55;;;;;;;1.00;0.80;;;22.40;99.90;;;;;;5019291;28;20461;-44
2021/09/18 11:11:26;;;;;;;0.93;0.70;;;22.20;99.90;;;;;;5021008;28;20503;-41
2021/09/18 11:13:56;;;;;;;1.40;1.00;;;21.70;99.90;;;;;;5039065;28;20436;-42
2021/09/18 11:16:25;;;;;;;1.20;0.90;;;21.40;99.90;;;;;;5037967;28;20475;-43
2021/09/18 11:19:01;;;;;;;1.10;0.80;;;21.10;99.90;;;;;;5037610;28;20983;-43
2021/09/18 11:21:29;;;;;;;2.27;1.00;;;20.70;99.90;;;;;;5037948;28;20647;-41
2021/09/18 11:24:00;;;;;;;1.33;0.90;;;20.40;99.90;;;;;;5037767;28;20908;-48
2021/09/18 11:26:46;;;;;;;1.70;1.00;;;20.20;99.90;;;;;;5037779;28;20448;-44
2021/09/18 11:29:19;;;;;;;2.17;1.50;;;19.80;99.90;;;;;;5037957;28;20618;-45
2021/09/18 11:32:14;;;;;;;1.93;1.30;;;19.40;99.90;;;;;;5038285;28;20523;-44
2021/09/18 11:34:44;;;;;;;2.60;1.70;;;19.00;99.90;;;;;;5036024;28;20459;-47
2021/09/18 11:37:13;;;;;;;2.53;1.30;;;18.70;99.90;;;;;;5037894;28;20488;-47
2021/09/18 11:39:51;;;;;;;1.30;1.13;;;18.50;99.90;;;;;;5037664;28;20505;-41
2021/09/18 11:42:25;;;;;;;1.70;1.30;;;18.40;99.90;;;;;;5037490;28;20448;-42
2021/09/18 11:44:58;;;;;;;3.77;1.17;;;18.40;99.90;;;;;;5038068;28;20451;-46
2021/09/18 11:47:31;;;;;;;3.13;1.10;;;18.40;99.90;;;;;;5038296;28;20751;-45
2021/09/18 11:49:58;;;;;;;2.70;0.97;;;18.30;99.90;;;;;;5038450;28;20428;-43
2021/09/18 11:52:36;;;;;;;2.23;1.80;;;18.30;99.90;;;;;;5037758;28;20479;-42
2021/09/18 11:55:07;;;;;;;1.70;1.43;;;18.30;99.90;;;;;;5037600;28;20463;-43
2021/09/18 11:57:35;;;;;;;4.90;1.83;;;18.30;99.90;;;;;;5037734;28;20567;-45
2021/09/18 12:00:17;;;;;;;3.23;2.03;;;18.40;99.90;;;;;;5037409;28;20554;-47
2021/09/18 12:02:44;;;;;;;3.10;2.37;;;18.40;99.90;;;;;;5038102;28;20459;-49
2021/09/18 12:05:18;;;;;;;1.97;1.37;;;18.40;99.90;;;;;;5037537;28;20535;-46
2021/09/18 12:07:49;;;;;;;6.20;1.30;;;18.50;99.90;;;;;;5039282;28;20976;-47
2021/09/18 12:10:26;;;;;;;1.83;1.17;;;18.60;99.90;;;;;;5038643;28;20493;-50
2021/09/18 12:12:57;;;;;;;2.70;1.33;;;18.70;99.90;;;;;;5038232;28;20737;-48
2021/09/18 12:15:32;;;;;;;1.10;1.00;;;18.80;99.90;;;;;;5027404;28;20467;-43
2021/09/18 12:17:59;;;;;;;2.80;1.40;;;19.00;99.90;;;;;;5017583;28;20436;-47
2021/09/18 12:20:27;;;;;;;1.33;1.23;;;19.00;99.90;;;;;;5018205;28;20515;-46
2021/09/18 12:22:54;;;;;;;1.63;1.40;;;19.20;99.90;;;;;;5017814;28;20449;-45
2021/09/18 12:25:27;;;;;;;1.97;1.47;;;19.20;99.90;;;;;;5017656;28;20449;-47
2021/09/18 12:27:56;;;;;;;1.30;1.13;;;19.20;99.90;;;;;;5017358;28;20544;-47
2021/09/18 12:30:27;;;;;;;1.70;1.30;;;19.30;99.90;;;;;;5016903;28;20495;-44
2021/09/18 12:33:05;;;;;;;1.67;1.33;;;19.40;99.90;;;;;;5018043;28;20461;-44
2021/09/18 12:35:42;;;;;;;1.70;1.40;;;19.50;99.90;;;;;;5017049;28;20460;-44
2021/09/18 12:38:10;;;;;;;2.67;2.10;;;19.60;99.90;;;;;;5017007;28;20448;-43
2021/09/18 12:40:42;;;;;;;2.33;1.73;;;19.60;99.90;;;;;;5017395;28;20471;-48
2021/09/18 12:43:12;;;;;;;3.63;1.60;;;19.70;99.90;;;;;;5018372;28;20453;-46
2021/09/18 12:45:39;;;;;;;1.90;1.77;;;19.70;99.90;;;;;;5018439;28;20456;-46
2021/09/18 12:48:18;;;;;;;2.93;2.00;;;19.80;99.90;;;;;;5018649;28;20841;-45
2021/09/18 12:50:57;;;;;;;2.37;2.00;;;19.70;99.90;;;;;;5020817;28;20573;-49
2021/09/18 12:53:26;;;;;;;1.30;1.20;;;19.60;99.90;;;;;;5020066;28;20451;-49
2021/09/18 12:56:26;;;;;;;2.30;2.10;;;19.40;99.90;;;;;;5019898;28;21050;-45
2021/09/18 12:58:54;;;;;;;3.47;2.30;;;19.20;99.90;;;;;;5019709;28;20457;-44